Terminal Aerodrome Forecast
Issued by NWS

Home | Current Version | Previous Version | Text Only | Print | Product List | Glossary On
Versions: 1 2 3 4 5 6 7 8 9 10 11 12 13 14 15
000
FTUS45 KTFX 262320
TAFHLN
TAF
KHLN 262320Z 2700/2724 28011KT P6SM VCSH SCT060 BKN090
     FM270200 26006KT P6SM SCT080
     FM271800 31011KT P6SM SCT060 BKN090=

USA.gov is the U.S. government's official web portal to all federal, state and local government web resources and services.